sensor_id;sensor_type;location;lat;lon;timestamp;P1;durP1;ratioP1;P2;durP2;ratioP2
18265;SDS011;9259;48.194;16.322;2023-08-31T00:00:29;4.07;;;1.40;;
18265;SDS011;9259;48.194;16.322;2023-08-31T00:02:58;3.42;;;1.02;;
18265;SDS011;9259;48.194;16.322;2023-08-31T00:05:26;2.10;;;1.33;;
18265;SDS011;9259;48.194;16.322;2023-08-31T00:07:56;2.33;;;1.23;;
18265;SDS011;9259;48.194;16.322;2023-08-31T00:10:25;2.05;;;1.40;;
18265;SDS011;9259;48.194;16.322;2023-08-31T00:12:55;3.47;;;1.50;;
18265;SDS011;9259;48.194;16.322;2023-08-31T00:15:23;2.25;;;1.45;;
18265;SDS011;9259;48.194;16.322;2023-08-31T00:17:51;2.88;;;1.58;;
18265;SDS011;9259;48.194;16.322;2023-08-31T00:20:19;2.30;;;1.40;;
18265;SDS011;9259;48.194;16.322;2023-08-31T00:22:47;2.22;;;1.45;;
18265;SDS011;9259;48.194;16.322;2023-08-31T00:25:16;2.60;;;1.50;;
18265;SDS011;9259;48.194;16.322;2023-08-31T00:27:45;2.95;;;1.20;;
18265;SDS011;9259;48.194;16.322;2023-08-31T00:30:14;2.30;;;1.42;;
18265;SDS011;9259;48.194;16.322;2023-08-31T00:32:42;3.33;;;1.60;;
18265;SDS011;9259;48.194;16.322;2023-08-31T00:35:13;3.60;;;1.52;;
18265;SDS011;9259;48.194;16.322;2023-08-31T00:37:41;2.78;;;1.35;;
18265;SDS011;9259;48.194;16.322;2023-08-31T00:40:09;2.10;;;1.40;;
18265;SDS011;9259;48.194;16.322;2023-08-31T00:42:39;2.75;;;1.27;;
18265;SDS011;9259;48.194;16.322;2023-08-31T00:45:09;2.05;;;1.50;;
18265;SDS011;9259;48.194;16.322;2023-08-31T00:47:38;3.63;;;1.40;;
18265;SDS011;9259;48.194;16.322;2023-08-31T00:50:06;1.80;;;1.35;;
18265;SDS011;9259;48.194;16.322;2023-08-31T00:52:36;3.85;;;1.67;;
18265;SDS011;9259;48.194;16.322;2023-08-31T00:55:04;2.05;;;1.60;;
18265;SDS011;9259;48.194;16.322;2023-08-31T00:57:34;2.13;;;1.50;;
18265;SDS011;9259;48.194;16.322;2023-08-31T01:00:02;8.48;;;1.98;;
18265;SDS011;9259;48.194;16.322;2023-08-31T01:02:36;2.00;;;1.50;;
18265;SDS011;9259;48.194;16.322;2023-08-31T01:05:08;2.25;;;1.60;;
18265;SDS011;9259;48.194;16.322;2023-08-31T01:07:39;3.08;;;1.83;;
18265;SDS011;9259;48.194;16.322;2023-08-31T01:10:14;1.77;;;1.33;;
18265;SDS011;9259;48.194;16.322;2023-08-31T01:12:50;2.45;;;1.60;;
18265;SDS011;9259;48.194;16.322;2023-08-31T01:15:19;2.00;;;1.60;;
18265;SDS011;9259;48.194;16.322;2023-08-31T01:17:49;3.15;;;1.98;;
18265;SDS011;9259;48.194;16.322;2023-08-31T01:20:37;1.95;;;1.60;;
18265;SDS011;9259;48.194;16.322;2023-08-31T01:23:06;2.97;;;1.60;;
18265;SDS011;9259;48.194;16.322;2023-08-31T01:25:37;2.33;;;1.73;;
18265;SDS011;9259;48.194;16.322;2023-08-31T01:28:06;3.45;;;1.80;;
18265;SDS011;9259;48.194;16.322;2023-08-31T01:30:34;5.15;;;1.67;;
18265;SDS011;9259;48.194;16.322;2023-08-31T01:33:02;2.90;;;2.00;;
18265;SDS011;9259;48.194;16.322;2023-08-31T01:35:33;3.22;;;2.00;;
18265;SDS011;9259;48.194;16.322;2023-08-31T01:38:03;2.50;;;1.90;;
18265;SDS011;9259;48.194;16.322;2023-08-31T01:40:35;3.35;;;2.10;;
18265;SDS011;9259;48.194;16.322;2023-08-31T01:43:07;2.55;;;2.00;;
18265;SDS011;9259;48.194;16.322;2023-08-31T01:45:35;2.83;;;2.15;;
18265;SDS011;9259;48.194;16.322;2023-08-31T01:48:04;3.53;;;1.90;;
18265;SDS011;9259;48.194;16.322;2023-08-31T01:50:32;3.40;;;2.28;;
18265;SDS011;9259;48.194;16.322;2023-08-31T01:53:00;3.53;;;2.08;;
18265;SDS011;9259;48.194;16.322;2023-08-31T01:55:28;3.92;;;2.35;;
18265;SDS011;9259;48.194;16.322;2023-08-31T01:57:58;4.15;;;2.30;;
18265;SDS011;9259;48.194;16.322;2023-08-31T02:00:26;3.70;;;2.40;;
18265;SDS011;9259;48.194;16.322;2023-08-31T02:02:54;4.70;;;2.83;;
18265;SDS011;9259;48.194;16.322;2023-08-31T02:05:22;3.67;;;2.70;;
18265;SDS011;9259;48.194;16.322;2023-08-31T02:07:50;3.40;;;2.70;;
18265;SDS011;9259;48.194;16.322;2023-08-31T02:10:18;4.45;;;3.10;;
18265;SDS011;9259;48.194;16.322;2023-08-31T02:12:46;3.92;;;2.67;;
18265;SDS011;9259;48.194;16.322;2023-08-31T02:15:16;4.10;;;2.60;;
18265;SDS011;9259;48.194;16.322;2023-08-31T02:17:44;6.60;;;2.83;;
18265;SDS011;9259;48.194;16.322;2023-08-31T02:20:12;4.63;;;2.60;;
18265;SDS011;9259;48.194;16.322;2023-08-31T02:22:40;4.22;;;2.13;;
18265;SDS011;9259;48.194;16.322;2023-08-31T02:25:08;4.18;;;2.63;;
18265;SDS011;9259;48.194;16.322;2023-08-31T02:27:36;3.58;;;2.42;;
18265;SDS011;9259;48.194;16.322;2023-08-31T02:30:05;3.08;;;2.10;;
18265;SDS011;9259;48.194;16.322;2023-08-31T02:32:37;3.58;;;2.25;;
18265;SDS011;9259;48.194;16.322;2023-08-31T02:35:05;4.28;;;2.40;;
18265;SDS011;9259;48.194;16.322;2023-08-31T02:37:34;3.47;;;2.08;;
18265;SDS011;9259;48.194;16.322;2023-08-31T02:40:02;3.47;;;2.00;;
18265;SDS011;9259;48.194;16.322;2023-08-31T02:42:31;2.80;;;1.88;;
18265;SDS011;9259;48.194;16.322;2023-08-31T02:44:59;3.00;;;2.30;;
18265;SDS011;9259;48.194;16.322;2023-08-31T02:47:28;3.03;;;2.25;;
18265;SDS011;9259;48.194;16.322;2023-08-31T02:49:57;3.75;;;2.00;;
18265;SDS011;9259;48.194;16.322;2023-08-31T02:52:25;3.35;;;2.10;;
18265;SDS011;9259;48.194;16.322;2023-08-31T02:54:53;2.55;;;2.05;;
18265;SDS011;9259;48.194;16.322;2023-08-31T02:57:21;5.15;;;2.00;;
18265;SDS011;9259;48.194;16.322;2023-08-31T02:59:50;2.75;;;1.92;;
18265;SDS011;9259;48.194;16.322;2023-08-31T03:02:18;3.60;;;2.08;;
18265;SDS011;9259;48.194;16.322;2023-08-31T03:04:46;3.63;;;1.98;;
18265;SDS011;9259;48.194;16.322;2023-08-31T03:07:15;3.28;;;2.20;;
18265;SDS011;9259;48.194;16.322;2023-08-31T03:09:47;2.85;;;2.20;;
18265;SDS011;9259;48.194;16.322;2023-08-31T03:12:16;5.93;;;2.25;;
18265;SDS011;9259;48.194;16.322;2023-08-31T03:14:44;4.88;;;2.42;;
18265;SDS011;9259;48.194;16.322;2023-08-31T03:17:12;5.15;;;2.17;;
18265;SDS011;9259;48.194;16.322;2023-08-31T03:19:40;4.30;;;2.60;;
18265;SDS011;9259;48.194;16.322;2023-08-31T03:22:09;3.45;;;2.20;;
18265;SDS011;9259;48.194;16.322;2023-08-31T03:24:38;3.00;;;1.98;;
18265;SDS011;9259;48.194;16.322;2023-08-31T03:27:06;2.58;;;1.80;;
18265;SDS011;9259;48.194;16.322;2023-08-31T03:29:34;2.95;;;1.90;;
18265;SDS011;9259;48.194;16.322;2023-08-31T03:32:02;3.17;;;1.90;;
18265;SDS011;9259;48.194;16.322;2023-08-31T03:34:31;4.50;;;2.10;;
18265;SDS011;9259;48.194;16.322;2023-08-31T03:36:59;2.78;;;1.83;;
18265;SDS011;9259;48.194;16.322;2023-08-31T03:39:27;3.03;;;2.15;;
18265;SDS011;9259;48.194;16.322;2023-08-31T03:41:56;3.05;;;2.00;;
18265;SDS011;9259;48.194;16.322;2023-08-31T03:44:24;3.25;;;2.05;;
18265;SDS011;9259;48.194;16.322;2023-08-31T03:46:52;4.82;;;2.00;;
18265;SDS011;9259;48.194;16.322;2023-08-31T03:49:20;4.20;;;2.08;;
18265;SDS011;9259;48.194;16.322;2023-08-31T03:51:48;3.15;;;1.90;;
18265;SDS011;9259;48.194;16.322;2023-08-31T03:54:18;3.88;;;1.60;;
18265;SDS011;9259;48.194;16.322;2023-08-31T03:56:46;3.90;;;1.65;;
18265;SDS011;9259;48.194;16.322;2023-08-31T03:59:16;2.55;;;1.90;;
18265;SDS011;9259;48.194;16.322;2023-08-31T04:01:44;2.75;;;1.67;;
18265;SDS011;9259;48.194;16.322;2023-08-31T04:04:12;6.25;;;1.98;;
18265;SDS011;9259;48.194;16.322;2023-08-31T04:06:40;3.25;;;1.85;;
18265;SDS011;9259;48.194;16.322;2023-08-31T04:09:08;2.72;;;1.85;;
18265;SDS011;9259;48.194;16.322;2023-08-31T04:11:36;3.42;;;1.77;;
18265;SDS011;9259;48.194;16.322;2023-08-31T04:14:04;3.28;;;1.73;;
18265;SDS011;9259;48.194;16.322;2023-08-31T04:16:33;2.65;;;1.83;;
18265;SDS011;9259;48.194;16.322;2023-08-31T04:19:01;3.85;;;1.70;;
18265;SDS011;9259;48.194;16.322;2023-08-31T04:21:29;2.88;;;1.63;;
18265;SDS011;9259;48.194;16.322;2023-08-31T04:23:58;2.97;;;1.70;;
18265;SDS011;9259;48.194;16.322;2023-08-31T04:26:26;1.80;;;1.48;;
18265;SDS011;9259;48.194;16.322;2023-08-31T04:28:55;2.25;;;1.70;;
18265;SDS011;9259;48.194;16.322;2023-08-31T04:31:23;3.13;;;1.98;;
18265;SDS011;9259;48.194;16.322;2023-08-31T04:33:52;2.35;;;1.67;;
18265;SDS011;9259;48.194;16.322;2023-08-31T04:36:21;4.28;;;1.98;;
18265;SDS011;9259;48.194;16.322;2023-08-31T04:38:49;4.45;;;1.83;;
18265;SDS011;9259;48.194;16.322;2023-08-31T04:41:17;5.22;;;2.83;;
18265;SDS011;9259;48.194;16.322;2023-08-31T04:43:45;4.80;;;1.90;;
18265;SDS011;9259;48.194;16.322;2023-08-31T04:46:14;4.72;;;1.83;;
18265;SDS011;9259;48.194;16.322;2023-08-31T04:48:42;2.83;;;2.00;;
18265;SDS011;9259;48.194;16.322;2023-08-31T04:53:55;2.90;;;1.77;;
18265;SDS011;9259;48.194;16.322;2023-08-31T04:56:23;2.85;;;1.75;;
18265;SDS011;9259;48.194;16.322;2023-08-31T04:58:51;3.60;;;2.10;;
18265;SDS011;9259;48.194;16.322;2023-08-31T05:01:19;2.95;;;2.00;;
18265;SDS011;9259;48.194;16.322;2023-08-31T05:03:47;4.75;;;1.55;;
18265;SDS011;9259;48.194;16.322;2023-08-31T05:06:15;4.20;;;1.98;;
18265;SDS011;9259;48.194;16.322;2023-08-31T05:08:45;2.85;;;1.75;;
18265;SDS011;9259;48.194;16.322;2023-08-31T05:11:14;4.65;;;1.80;;
18265;SDS011;9259;48.194;16.322;2023-08-31T05:13:42;2.72;;;1.65;;
18265;SDS011;9259;48.194;16.322;2023-08-31T05:16:10;2.88;;;1.75;;
18265;SDS011;9259;48.194;16.322;2023-08-31T05:18:38;2.45;;;1.58;;
18265;SDS011;9259;48.194;16.322;2023-08-31T05:21:07;2.30;;;1.83;;
18265;SDS011;9259;48.194;16.322;2023-08-31T05:23:35;2.75;;;1.73;;
18265;SDS011;9259;48.194;16.322;2023-08-31T05:26:04;4.10;;;1.88;;
18265;SDS011;9259;48.194;16.322;2023-08-31T05:28:32;5.18;;;1.90;;
18265;SDS011;9259;48.194;16.322;2023-08-31T05:31:01;1.90;;;1.45;;
18265;SDS011;9259;48.194;16.322;2023-08-31T05:33:31;2.63;;;1.52;;
18265;SDS011;9259;48.194;16.322;2023-08-31T05:36:00;3.35;;;1.60;;
18265;SDS011;9259;48.194;16.322;2023-08-31T05:38:29;1.90;;;1.45;;
18265;SDS011;9259;48.194;16.322;2023-08-31T05:41:05;2.28;;;1.50;;
18265;SDS011;9259;48.194;16.322;2023-08-31T05:43:34;2.03;;;1.30;;
18265;SDS011;9259;48.194;16.322;2023-08-31T05:46:02;2.58;;;1.40;;
18265;SDS011;9259;48.194;16.322;2023-08-31T05:48:30;2.78;;;1.48;;
18265;SDS011;9259;48.194;16.322;2023-08-31T05:50:58;4.35;;;1.27;;
18265;SDS011;9259;48.194;16.322;2023-08-31T05:53:26;2.20;;;1.25;;
18265;SDS011;9259;48.194;16.322;2023-08-31T05:55:54;3.50;;;1.25;;
18265;SDS011;9259;48.194;16.322;2023-08-31T05:58:31;3.50;;;1.35;;
18265;SDS011;9259;48.194;16.322;2023-08-31T06:00:59;2.33;;;1.10;;
18265;SDS011;9259;48.194;16.322;2023-08-31T06:03:28;1.58;;;1.30;;
18265;SDS011;9259;48.194;16.322;2023-08-31T06:05:56;2.03;;;1.10;;
18265;SDS011;9259;48.194;16.322;2023-08-31T06:08:25;2.03;;;1.30;;
18265;SDS011;9259;48.194;16.322;2023-08-31T06:10:53;1.58;;;1.15;;
18265;SDS011;9259;48.194;16.322;2023-08-31T06:13:21;2.00;;;1.50;;
18265;SDS011;9259;48.194;16.322;2023-08-31T06:15:53;2.63;;;1.40;;
18265;SDS011;9259;48.194;16.322;2023-08-31T06:18:23;3.22;;;1.70;;
18265;SDS011;9259;48.194;16.322;2023-08-31T06:20:51;1.73;;;1.23;;
18265;SDS011;9259;48.194;16.322;2023-08-31T06:23:19;3.00;;;1.50;;
18265;SDS011;9259;48.194;16.322;2023-08-31T06:25:47;2.33;;;1.13;;
18265;SDS011;9259;48.194;16.322;2023-08-31T06:28:15;2.00;;;1.15;;
18265;SDS011;9259;48.194;16.322;2023-08-31T06:30:43;2.88;;;1.20;;
18265;SDS011;9259;48.194;16.322;2023-08-31T06:33:13;1.38;;;1.00;;
18265;SDS011;9259;48.194;16.322;2023-08-31T06:35:45;1.33;;;1.02;;
18265;SDS011;9259;48.194;16.322;2023-08-31T06:38:14;8.95;;;1.30;;
18265;SDS011;9259;48.194;16.322;2023-08-31T06:40:42;4.22;;;1.35;;
18265;SDS011;9259;48.194;16.322;2023-08-31T06:43:10;2.67;;;1.40;;
18265;SDS011;9259;48.194;16.322;2023-08-31T06:45:39;6.13;;;1.38;;
18265;SDS011;9259;48.194;16.322;2023-08-31T06:48:07;1.98;;;1.30;;
18265;SDS011;9259;48.194;16.322;2023-08-31T06:50:36;2.83;;;1.17;;
18265;SDS011;9259;48.194;16.322;2023-08-31T06:53:04;2.40;;;1.40;;
18265;SDS011;9259;48.194;16.322;2023-08-31T06:55:32;3.15;;;1.20;;
18265;SDS011;9259;48.194;16.322;2023-08-31T06:58:00;2.40;;;1.20;;
18265;SDS011;9259;48.194;16.322;2023-08-31T07:00:30;1.75;;;1.05;;
18265;SDS011;9259;48.194;16.322;2023-08-31T07:02:58;2.55;;;1.27;;
18265;SDS011;9259;48.194;16.322;2023-08-31T07:05:26;2.83;;;1.20;;
18265;SDS011;9259;48.194;16.322;2023-08-31T07:07:56;1.88;;;1.20;;
18265;SDS011;9259;48.194;16.322;2023-08-31T07:10:25;2.10;;;1.20;;
18265;SDS011;9259;48.194;16.322;2023-08-31T07:12:53;3.55;;;1.40;;
18265;SDS011;9259;48.194;16.322;2023-08-31T07:15:21;2.60;;;1.10;;
18265;SDS011;9259;48.194;16.322;2023-08-31T07:17:49;2.20;;;1.23;;
18265;SDS011;9259;48.194;16.322;2023-08-31T07:20:16;3.15;;;1.20;;
18265;SDS011;9259;48.194;16.322;2023-08-31T07:22:44;4.50;;;1.35;;
18265;SDS011;9259;48.194;16.322;2023-08-31T07:25:14;2.80;;;1.55;;
18265;SDS011;9259;48.194;16.322;2023-08-31T07:27:42;1.90;;;1.10;;
18265;SDS011;9259;48.194;16.322;2023-08-31T07:30:13;2.55;;;1.38;;
18265;SDS011;9259;48.194;16.322;2023-08-31T07:32:41;1.98;;;1.20;;
18265;SDS011;9259;48.194;16.322;2023-08-31T07:35:09;1.35;;;1.00;;
18265;SDS011;9259;48.194;16.322;2023-08-31T07:37:37;2.17;;;1.33;;
18265;SDS011;9259;48.194;16.322;2023-08-31T07:40:06;4.10;;;1.30;;
18265;SDS011;9259;48.194;16.322;2023-08-31T07:42:37;1.58;;;1.10;;
18265;SDS011;9259;48.194;16.322;2023-08-31T07:45:07;1.35;;;1.00;;
18265;SDS011;9259;48.194;16.322;2023-08-31T07:47:36;1.85;;;1.20;;
18265;SDS011;9259;48.194;16.322;2023-08-31T07:50:05;1.58;;;1.00;;
18265;SDS011;9259;48.194;16.322;2023-08-31T07:52:33;2.65;;;1.30;;
18265;SDS011;9259;48.194;16.322;2023-08-31T07:55:03;2.65;;;1.40;;
18265;SDS011;9259;48.194;16.322;2023-08-31T07:57:31;3.40;;;1.20;;
18265;SDS011;9259;48.194;16.322;2023-08-31T08:00:01;2.95;;;1.38;;
18265;SDS011;9259;48.194;16.322;2023-08-31T08:02:29;2.63;;;1.33;;
18265;SDS011;9259;48.194;16.322;2023-08-31T08:04:57;2.92;;;1.48;;
18265;SDS011;9259;48.194;16.322;2023-08-31T08:07:26;1.40;;;1.20;;
18265;SDS011;9259;48.194;16.322;2023-08-31T08:09:54;3.15;;;1.42;;
18265;SDS011;9259;48.194;16.322;2023-08-31T08:12:22;4.60;;;1.45;;
18265;SDS011;9259;48.194;16.322;2023-08-31T08:14:52;2.60;;;1.10;;
18265;SDS011;9259;48.194;16.322;2023-08-31T08:17:21;5.00;;;1.40;;
18265;SDS011;9259;48.194;16.322;2023-08-31T08:19:50;1.95;;;1.30;;
18265;SDS011;9259;48.194;16.322;2023-08-31T08:22:18;3.90;;;1.70;;
18265;SDS011;9259;48.194;16.322;2023-08-31T08:24:46;2.47;;;1.40;;
18265;SDS011;9259;48.194;16.322;2023-08-31T08:27:14;1.77;;;1.30;;
18265;SDS011;9259;48.194;16.322;2023-08-31T08:29:43;2.47;;;1.42;;
18265;SDS011;9259;48.194;16.322;2023-08-31T08:32:11;2.20;;;1.35;;
18265;SDS011;9259;48.194;16.322;2023-08-31T08:34:41;2.90;;;1.80;;
18265;SDS011;9259;48.194;16.322;2023-08-31T08:37:09;3.30;;;1.40;;
18265;SDS011;9259;48.194;16.322;2023-08-31T08:39:37;1.77;;;1.20;;
18265;SDS011;9259;48.194;16.322;2023-08-31T08:42:05;1.50;;;1.20;;
18265;SDS011;9259;48.194;16.322;2023-08-31T08:44:34;2.53;;;1.50;;
18265;SDS011;9259;48.194;16.322;2023-08-31T08:47:03;2.40;;;1.30;;
18265;SDS011;9259;48.194;16.322;2023-08-31T08:49:31;1.23;;;0.90;;
18265;SDS011;9259;48.194;16.322;2023-08-31T08:52:02;1.70;;;1.00;;
18265;SDS011;9259;48.194;16.322;2023-08-31T08:54:31;7.43;;;1.40;;
18265;SDS011;9259;48.194;16.322;2023-08-31T08:56:59;1.75;;;1.10;;
18265;SDS011;9259;48.194;16.322;2023-08-31T08:59:30;1.90;;;1.10;;
18265;SDS011;9259;48.194;16.322;2023-08-31T09:01:58;2.67;;;1.10;;
18265;SDS011;9259;48.194;16.322;2023-08-31T09:04:28;2.22;;;0.98;;
18265;SDS011;9259;48.194;16.322;2023-08-31T09:06:58;2.63;;;0.88;;
18265;SDS011;9259;48.194;16.322;2023-08-31T09:09:27;5.53;;;1.33;;
18265;SDS011;9259;48.194;16.322;2023-08-31T09:11:55;3.22;;;0.98;;
18265;SDS011;9259;48.194;16.322;2023-08-31T09:14:23;4.20;;;1.00;;
18265;SDS011;9259;48.194;16.322;2023-08-31T09:16:51;2.03;;;1.13;;
18265;SDS011;9259;48.194;16.322;2023-08-31T09:19:20;3.92;;;1.05;;
18265;SDS011;9259;48.194;16.322;2023-08-31T09:21:49;4.15;;;0.90;;
18265;SDS011;9259;48.194;16.322;2023-08-31T09:24:18;2.65;;;0.80;;
18265;SDS011;9259;48.194;16.322;2023-08-31T09:26:48;1.73;;;1.10;;
18265;SDS011;9259;48.194;16.322;2023-08-31T09:29:19;3.13;;;1.20;;
18265;SDS011;9259;48.194;16.322;2023-08-31T09:31:47;1.77;;;0.98;;
18265;SDS011;9259;48.194;16.322;2023-08-31T09:34:16;2.00;;;1.00;;
18265;SDS011;9259;48.194;16.322;2023-08-31T09:36:44;1.80;;;0.90;;
18265;SDS011;9259;48.194;16.322;2023-08-31T09:39:13;2.75;;;1.05;;
18265;SDS011;9259;48.194;16.322;2023-08-31T09:41:55;2.42;;;1.10;;
18265;SDS011;9259;48.194;16.322;2023-08-31T09:44:25;1.40;;;1.00;;
18265;SDS011;9259;48.194;16.322;2023-08-31T09:46:53;1.77;;;0.70;;
18265;SDS011;9259;48.194;16.322;2023-08-31T09:49:21;3.22;;;0.93;;
18265;SDS011;9259;48.194;16.322;2023-08-31T09:51:49;1.63;;;0.90;;
18265;SDS011;9259;48.194;16.322;2023-08-31T09:54:19;1.70;;;1.00;;
18265;SDS011;9259;48.194;16.322;2023-08-31T09:56:47;1.17;;;0.80;;
18265;SDS011;9259;48.194;16.322;2023-08-31T09:59:17;2.00;;;0.98;;
18265;SDS011;9259;48.194;16.322;2023-08-31T10:01:45;1.85;;;0.98;;
18265;SDS011;9259;48.194;16.322;2023-08-31T10:04:13;1.70;;;1.00;;
18265;SDS011;9259;48.194;16.322;2023-08-31T10:06:42;1.13;;;0.70;;
18265;SDS011;9259;48.194;16.322;2023-08-31T10:09:10;2.17;;;1.08;;
18265;SDS011;9259;48.194;16.322;2023-08-31T10:11:39;1.92;;;1.00;;
18265;SDS011;9259;48.194;16.322;2023-08-31T10:14:08;3.13;;;0.88;;
18265;SDS011;9259;48.194;16.322;2023-08-31T10:16:40;1.20;;;0.93;;
18265;SDS011;9259;48.194;16.322;2023-08-31T10:19:09;1.80;;;1.20;;
18265;SDS011;9259;48.194;16.322;2023-08-31T10:21:37;0.98;;;0.77;;
18265;SDS011;9259;48.194;16.322;2023-08-31T10:24:06;1.27;;;0.70;;
18265;SDS011;9259;48.194;16.322;2023-08-31T10:26:35;1.60;;;0.70;;
18265;SDS011;9259;48.194;16.322;2023-08-31T10:29:03;0.80;;;0.60;;
18265;SDS011;9259;48.194;16.322;2023-08-31T10:31:31;1.98;;;0.80;;
18265;SDS011;9259;48.194;16.322;2023-08-31T10:34:01;2.45;;;0.80;;
18265;SDS011;9259;48.194;16.322;2023-08-31T10:36:37;1.30;;;0.90;;
18265;SDS011;9259;48.194;16.322;2023-08-31T10:39:06;3.38;;;1.00;;
18265;SDS011;9259;48.194;16.322;2023-08-31T10:41:39;1.77;;;0.85;;
18265;SDS011;9259;48.194;16.322;2023-08-31T10:44:17;3.28;;;0.88;;
18265;SDS011;9259;48.194;16.322;2023-08-31T10:46:46;1.88;;;0.90;;
18265;SDS011;9259;48.194;16.322;2023-08-31T10:49:18;8.40;;;1.08;;
18265;SDS011;9259;48.194;16.322;2023-08-31T10:51:48;1.42;;;0.70;;
18265;SDS011;9259;48.194;16.322;2023-08-31T10:54:20;2.25;;;0.90;;
18265;SDS011;9259;48.194;16.322;2023-08-31T10:57:01;1.88;;;0.88;;
18265;SDS011;9259;48.194;16.322;2023-08-31T10:59:43;2.28;;;0.90;;
18265;SDS011;9259;48.194;16.322;2023-08-31T11:05:05;1.48;;;0.77;;
18265;SDS011;9259;48.194;16.322;2023-08-31T11:07:34;2.80;;;0.98;;
18265;SDS011;9259;48.194;16.322;2023-08-31T11:10:09;3.58;;;0.90;;
18265;SDS011;9259;48.194;16.322;2023-08-31T11:12:39;1.77;;;0.85;;
18265;SDS011;9259;48.194;16.322;2023-08-31T11:15:10;3.17;;;1.00;;
18265;SDS011;9259;48.194;16.322;2023-08-31T11:17:40;2.50;;;0.90;;
18265;SDS011;9259;48.194;16.322;2023-08-31T11:20:12;1.80;;;0.90;;
18265;SDS011;9259;48.194;16.322;2023-08-31T11:22:42;1.50;;;0.90;;
18265;SDS011;9259;48.194;16.322;2023-08-31T11:25:12;2.67;;;1.10;;
18265;SDS011;9259;48.194;16.322;2023-08-31T11:27:40;1.67;;;1.00;;
18265;SDS011;9259;48.194;16.322;2023-08-31T11:30:12;5.72;;;1.27;;
18265;SDS011;9259;48.194;16.322;2023-08-31T11:32:45;1.92;;;1.08;;
18265;SDS011;9259;48.194;16.322;2023-08-31T11:35:15;1.35;;;1.08;;
18265;SDS011;9259;48.194;16.322;2023-08-31T11:37:44;1.15;;;0.80;;
18265;SDS011;9259;48.194;16.322;2023-08-31T11:40:13;1.05;;;0.80;;
18265;SDS011;9259;48.194;16.322;2023-08-31T11:42:41;3.60;;;0.95;;
18265;SDS011;9259;48.194;16.322;2023-08-31T11:45:09;2.85;;;1.40;;
18265;SDS011;9259;48.194;16.322;2023-08-31T11:47:39;1.85;;;1.52;;
18265;SDS011;9259;48.194;16.322;2023-08-31T11:50:08;1.52;;;1.13;;
18265;SDS011;9259;48.194;16.322;2023-08-31T11:52:38;2.70;;;1.23;;
18265;SDS011;9259;48.194;16.322;2023-08-31T11:55:10;1.60;;;1.10;;
18265;SDS011;9259;48.194;16.322;2023-08-31T11:57:38;0.90;;;0.70;;
18265;SDS011;9259;48.194;16.322;2023-08-31T12:00:07;2.67;;;1.00;;
18265;SDS011;9259;48.194;16.322;2023-08-31T12:02:36;2.08;;;1.08;;
18265;SDS011;9259;48.194;16.322;2023-08-31T12:05:05;2.10;;;0.90;;
18265;SDS011;9259;48.194;16.322;2023-08-31T12:07:40;3.78;;;1.20;;
18265;SDS011;9259;48.194;16.322;2023-08-31T12:10:08;1.70;;;0.85;;
18265;SDS011;9259;48.194;16.322;2023-08-31T12:12:37;1.20;;;0.98;;
18265;SDS011;9259;48.194;16.322;2023-08-31T12:15:05;1.85;;;0.73;;
18265;SDS011;9259;48.194;16.322;2023-08-31T12:17:36;2.15;;;1.17;;
18265;SDS011;9259;48.194;16.322;2023-08-31T12:20:05;2.33;;;1.13;;
18265;SDS011;9259;48.194;16.322;2023-08-31T12:22:35;2.10;;;1.00;;
18265;SDS011;9259;48.194;16.322;2023-08-31T12:25:05;3.95;;;1.17;;
18265;SDS011;9259;48.194;16.322;2023-08-31T12:27:34;2.25;;;0.98;;
18265;SDS011;9259;48.194;16.322;2023-08-31T12:30:02;1.20;;;0.80;;
18265;SDS011;9259;48.194;16.322;2023-08-31T12:32:31;1.85;;;0.90;;
18265;SDS011;9259;48.194;16.322;2023-08-31T12:34:59;1.50;;;0.90;;
18265;SDS011;9259;48.194;16.322;2023-08-31T12:37:29;1.55;;;0.90;;
18265;SDS011;9259;48.194;16.322;2023-08-31T12:39:57;3.58;;;1.30;;
18265;SDS011;9259;48.194;16.322;2023-08-31T12:42:26;1.77;;;0.98;;
18265;SDS011;9259;48.194;16.322;2023-08-31T12:44:54;1.73;;;1.02;;
18265;SDS011;9259;48.194;16.322;2023-08-31T12:47:22;2.47;;;1.33;;
18265;SDS011;9259;48.194;16.322;2023-08-31T12:49:50;1.40;;;1.00;;
18265;SDS011;9259;48.194;16.322;2023-08-31T12:52:18;1.48;;;0.90;;
18265;SDS011;9259;48.194;16.322;2023-08-31T12:54:46;2.83;;;1.00;;
18265;SDS011;9259;48.194;16.322;2023-08-31T12:57:14;2.28;;;1.40;;
18265;SDS011;9259;48.194;16.322;2023-08-31T12:59:44;3.60;;;1.10;;
18265;SDS011;9259;48.194;16.322;2023-08-31T13:02:12;1.33;;;1.10;;
18265;SDS011;9259;48.194;16.322;2023-08-31T13:04:40;2.72;;;1.10;;
18265;SDS011;9259;48.194;16.322;2023-08-31T13:07:08;2.80;;;1.13;;
18265;SDS011;9259;48.194;16.322;2023-08-31T13:09:36;1.75;;;1.25;;
18265;SDS011;9259;48.194;16.322;2023-08-31T13:12:04;2.70;;;1.10;;
18265;SDS011;9259;48.194;16.322;2023-08-31T13:14:32;2.22;;;1.13;;
18265;SDS011;9259;48.194;16.322;2023-08-31T13:17:02;3.47;;;1.17;;
18265;SDS011;9259;48.194;16.322;2023-08-31T13:19:31;2.08;;;0.90;;
18265;SDS011;9259;48.194;16.322;2023-08-31T13:21:59;2.10;;;1.10;;
18265;SDS011;9259;48.194;16.322;2023-08-31T13:24:29;1.58;;;1.13;;
18265;SDS011;9259;48.194;16.322;2023-08-31T13:26:57;2.10;;;1.10;;
18265;SDS011;9259;48.194;16.322;2023-08-31T13:29:25;2.38;;;1.00;;
18265;SDS011;9259;48.194;16.322;2023-08-31T13:31:53;1.35;;;0.95;;
18265;SDS011;9259;48.194;16.322;2023-08-31T13:34:22;2.72;;;1.20;;
18265;SDS011;9259;48.194;16.322;2023-08-31T13:36:50;1.67;;;1.10;;
18265;SDS011;9259;48.194;16.322;2023-08-31T13:39:18;1.30;;;0.90;;
18265;SDS011;9259;48.194;16.322;2023-08-31T13:41:46;3.92;;;1.10;;
18265;SDS011;9259;48.194;16.322;2023-08-31T13:44:14;1.73;;;1.00;;
18265;SDS011;9259;48.194;16.322;2023-08-31T13:46:51;2.47;;;0.90;;
18265;SDS011;9259;48.194;16.322;2023-08-31T13:49:19;1.48;;;0.95;;
18265;SDS011;9259;48.194;16.322;2023-08-31T13:51:49;1.65;;;0.98;;
18265;SDS011;9259;48.194;16.322;2023-08-31T13:54:17;6.07;;;1.30;;
18265;SDS011;9259;48.194;16.322;2023-08-31T13:56:45;2.20;;;1.10;;
18265;SDS011;9259;48.194;16.322;2023-08-31T13:59:15;3.20;;;1.10;;
18265;SDS011;9259;48.194;16.322;2023-08-31T14:01:44;1.65;;;1.10;;
18265;SDS011;9259;48.194;16.322;2023-08-31T14:04:12;1.90;;;1.02;;
18265;SDS011;9259;48.194;16.322;2023-08-31T14:06:41;2.83;;;1.40;;
18265;SDS011;9259;48.194;16.322;2023-08-31T14:09:10;3.63;;;0.90;;
18265;SDS011;9259;48.194;16.322;2023-08-31T14:11:38;1.88;;;0.90;;
18265;SDS011;9259;48.194;16.322;2023-08-31T14:14:07;1.92;;;1.20;;
18265;SDS011;9259;48.194;16.322;2023-08-31T14:16:36;1.67;;;1.15;;
18265;SDS011;9259;48.194;16.322;2023-08-31T14:19:04;3.00;;;1.00;;
18265;SDS011;9259;48.194;16.322;2023-08-31T14:21:32;3.22;;;1.08;;
18265;SDS011;9259;48.194;16.322;2023-08-31T14:24:01;2.97;;;1.00;;
18265;SDS011;9259;48.194;16.322;2023-08-31T14:26:31;2.17;;;1.33;;
18265;SDS011;9259;48.194;16.322;2023-08-31T14:28:59;2.85;;;1.30;;
18265;SDS011;9259;48.194;16.322;2023-08-31T14:31:28;1.95;;;1.20;;
18265;SDS011;9259;48.194;16.322;2023-08-31T14:33:57;2.30;;;1.20;;
18265;SDS011;9259;48.194;16.322;2023-08-31T14:36:27;1.90;;;1.20;;
18265;SDS011;9259;48.194;16.322;2023-08-31T14:38:56;1.98;;;1.10;;
18265;SDS011;9259;48.194;16.322;2023-08-31T14:41:26;3.08;;;1.20;;
18265;SDS011;9259;48.194;16.322;2023-08-31T14:43:58;2.40;;;1.15;;
18265;SDS011;9259;48.194;16.322;2023-08-31T14:46:28;2.05;;;1.20;;
18265;SDS011;9259;48.194;16.322;2023-08-31T14:48:58;3.85;;;1.27;;
18265;SDS011;9259;48.194;16.322;2023-08-31T14:51:27;3.15;;;1.13;;
18265;SDS011;9259;48.194;16.322;2023-08-31T14:53:57;2.13;;;1.20;;
18265;SDS011;9259;48.194;16.322;2023-08-31T14:56:26;3.13;;;1.20;;
18265;SDS011;9259;48.194;16.322;2023-08-31T14:58:56;1.52;;;1.02;;
18265;SDS011;9259;48.194;16.322;2023-08-31T15:01:28;2.47;;;1.25;;
18265;SDS011;9259;48.194;16.322;2023-08-31T15:03:57;3.10;;;1.30;;